sensor_id;sensor_type;location;lat;lon;timestamp;temperature;humidity
34644;DHT22;26931;43.498;-1.506;2022-12-16T00:02:01;13.60;99.90
34644;DHT22;26931;43.498;-1.506;2022-12-16T00:04:27;13.80;99.90
34644;DHT22;26931;43.498;-1.506;2022-12-16T00:06:53;13.60;99.90
34644;DHT22;26931;43.498;-1.506;2022-12-16T00:09:19;13.60;99.90
34644;DHT22;26931;43.498;-1.506;2022-12-16T00:11:45;13.70;99.90
34644;DHT22;26931;43.498;-1.506;2022-12-16T00:14:11;13.50;99.90
34644;DHT22;26931;43.498;-1.506;2022-12-16T00:16:36;13.70;99.90
34644;DHT22;26931;43.498;-1.506;2022-12-16T00:19:02;13.70;99.90
34644;DHT22;26931;43.498;-1.506;2022-12-16T00:21:28;13.70;99.90
34644;DHT22;26931;43.498;-1.506;2022-12-16T00:23:54;13.90;99.90
34644;DHT22;26931;43.498;-1.506;2022-12-16T00:26:21;13.60;99.90
34644;DHT22;26931;43.498;-1.506;2022-12-16T00:28:47;13.80;99.90
34644;DHT22;26931;43.498;-1.506;2022-12-16T00:31:13;13.80;99.90
34644;DHT22;26931;43.498;-1.506;2022-12-16T00:33:39;13.80;99.90
34644;DHT22;26931;43.498;-1.506;2022-12-16T00:36:05;13.90;99.90
34644;DHT22;26931;43.498;-1.506;2022-12-16T00:38:31;13.90;99.90
34644;DHT22;26931;43.498;-1.506;2022-12-16T00:40:57;13.90;99.90
34644;DHT22;26931;43.498;-1.506;2022-12-16T00:43:22;13.90;99.90
34644;DHT22;26931;43.498;-1.506;2022-12-16T00:45:49;14.00;99.90
34644;DHT22;26931;43.498;-1.506;2022-12-16T00:48:14;14.00;99.90
34644;DHT22;26931;43.498;-1.506;2022-12-16T00:50:43;14.00;99.90
34644;DHT22;26931;43.498;-1.506;2022-12-16T00:53:08;14.10;99.90
34644;DHT22;26931;43.498;-1.506;2022-12-16T00:55:34;14.10;99.90
34644;DHT22;26931;43.498;-1.506;2022-12-16T00:58:00;14.00;99.90
34644;DHT22;26931;43.498;-1.506;2022-12-16T01:00:26;14.10;99.90
34644;DHT22;26931;43.498;-1.506;2022-12-16T01:02:52;14.10;99.90
34644;DHT22;26931;43.498;-1.506;2022-12-16T01:05:19;14.10;99.90
34644;DHT22;26931;43.498;-1.506;2022-12-16T01:07:45;14.10;99.90
34644;DHT22;26931;43.498;-1.506;2022-12-16T01:10:11;14.10;99.90
34644;DHT22;26931;43.498;-1.506;2022-12-16T01:12:37;14.10;99.90
34644;DHT22;26931;43.498;-1.506;2022-12-16T01:15:04;14.20;99.90
34644;DHT22;26931;43.498;-1.506;2022-12-16T01:17:30;14.20;99.90
34644;DHT22;26931;43.498;-1.506;2022-12-16T01:19:56;14.20;99.90
34644;DHT22;26931;43.498;-1.506;2022-12-16T01:22:22;14.20;99.90
34644;DHT22;26931;43.498;-1.506;2022-12-16T01:24:47;14.20;99.90
34644;DHT22;26931;43.498;-1.506;2022-12-16T01:27:13;14.30;99.80
34644;DHT22;26931;43.498;-1.506;2022-12-16T01:29:39;14.30;99.60
34644;DHT22;26931;43.498;-1.506;2022-12-16T01:32:05;14.20;99.50
34644;DHT22;26931;43.498;-1.506;2022-12-16T01:34:31;14.40;99.40
34644;DHT22;26931;43.498;-1.506;2022-12-16T01:36:57;14.40;99.30
34644;DHT22;26931;43.498;-1.506;2022-12-16T01:39:23;14.30;99.30
34644;DHT22;26931;43.498;-1.506;2022-12-16T01:41:51;14.40;99.20
34644;DHT22;26931;43.498;-1.506;2022-12-16T01:44:21;14.40;99.10
34644;DHT22;26931;43.498;-1.506;2022-12-16T01:46:49;14.40;99.10
34644;DHT22;26931;43.498;-1.506;2022-12-16T01:49:19;14.40;99.00
34644;DHT22;26931;43.498;-1.506;2022-12-16T01:51:46;14.40;98.90
34644;DHT22;26931;43.498;-1.506;2022-12-16T01:54:14;14.50;98.70
34644;DHT22;26931;43.498;-1.506;2022-12-16T01:56:43;14.40;98.80
34644;DHT22;26931;43.498;-1.506;2022-12-16T01:59:10;14.40;98.80
34644;DHT22;26931;43.498;-1.506;2022-12-16T02:01:36;14.40;98.80
34644;DHT22;26931;43.498;-1.506;2022-12-16T02:04:02;14.50;98.80
34644;DHT22;26931;43.498;-1.506;2022-12-16T02:06:28;14.40;98.70
34644;DHT22;26931;43.498;-1.506;2022-12-16T02:08:55;14.50;98.80
34644;DHT22;26931;43.498;-1.506;2022-12-16T02:11:34;14.40;98.80
34644;DHT22;26931;43.498;-1.506;2022-12-16T02:14:21;14.40;98.90
34644;DHT22;26931;43.498;-1.506;2022-12-16T02:16:54;14.40;98.90
34644;DHT22;26931;43.498;-1.506;2022-12-16T02:32:52;14.20;99.90
34644;DHT22;26931;43.498;-1.506;2022-12-16T02:40:27;14.20;99.90
34644;DHT22;26931;43.498;-1.506;2022-12-16T02:43:01;14.00;99.90
34644;DHT22;26931;43.498;-1.506;2022-12-16T02:45:29;14.30;99.90
34644;DHT22;26931;43.498;-1.506;2022-12-16T02:47:58;14.10;99.90
34644;DHT22;26931;43.498;-1.506;2022-12-16T02:50:27;14.00;99.90
34644;DHT22;26931;43.498;-1.506;2022-12-16T02:52:55;14.00;99.90
34644;DHT22;26931;43.498;-1.506;2022-12-16T02:55:23;14.00;99.90
34644;DHT22;26931;43.498;-1.506;2022-12-16T02:57:59;14.00;99.90
34644;DHT22;26931;43.498;-1.506;2022-12-16T03:00:28;14.00;99.90
34644;DHT22;26931;43.498;-1.506;2022-12-16T03:07:56;14.00;99.90
34644;DHT22;26931;43.498;-1.506;2022-12-16T03:10:24;14.00;99.90
34644;DHT22;26931;43.498;-1.506;2022-12-16T03:12:51;14.10;99.90
34644;DHT22;26931;43.498;-1.506;2022-12-16T03:15:18;14.00;99.90
34644;DHT22;26931;43.498;-1.506;2022-12-16T03:17:45;14.00;99.90
34644;DHT22;26931;43.498;-1.506;2022-12-16T03:20:17;14.00;99.90
34644;DHT22;26931;43.498;-1.506;2022-12-16T03:22:44;14.00;99.90
34644;DHT22;26931;43.498;-1.506;2022-12-16T03:25:10;14.00;99.90
34644;DHT22;26931;43.498;-1.506;2022-12-16T03:30:10;14.00;99.90
34644;DHT22;26931;43.498;-1.506;2022-12-16T03:32:42;14.00;99.90
34644;DHT22;26931;43.498;-1.506;2022-12-16T03:35:13;13.90;99.90
34644;DHT22;26931;43.498;-1.506;2022-12-16T03:37:40;14.00;99.90
34644;DHT22;26931;43.498;-1.506;2022-12-16T03:40:07;14.00;99.90
34644;DHT22;26931;43.498;-1.506;2022-12-16T03:42:33;14.00;99.90
34644;DHT22;26931;43.498;-1.506;2022-12-16T03:45:00;13.90;99.90
34644;DHT22;26931;43.498;-1.506;2022-12-16T03:47:27;13.80;99.90
34644;DHT22;26931;43.498;-1.506;2022-12-16T03:49:53;13.90;99.90
34644;DHT22;26931;43.498;-1.506;2022-12-16T03:52:18;13.90;99.90
34644;DHT22;26931;43.498;-1.506;2022-12-16T03:54:44;13.90;99.90
34644;DHT22;26931;43.498;-1.506;2022-12-16T03:57:10;13.90;99.90
34644;DHT22;26931;43.498;-1.506;2022-12-16T03:59:37;13.90;99.90
34644;DHT22;26931;43.498;-1.506;2022-12-16T04:02:02;13.90;99.90
34644;DHT22;26931;43.498;-1.506;2022-12-16T04:04:28;13.90;99.90
34644;DHT22;26931;43.498;-1.506;2022-12-16T04:06:53;13.80;99.90
34644;DHT22;26931;43.498;-1.506;2022-12-16T04:09:38;13.80;99.90
34644;DHT22;26931;43.498;-1.506;2022-12-16T04:12:03;13.80;99.90
34644;DHT22;26931;43.498;-1.506;2022-12-16T04:14:47;13.70;99.90
34644;DHT22;26931;43.498;-1.506;2022-12-16T04:17:32;13.70;99.90
34644;DHT22;26931;43.498;-1.506;2022-12-16T04:20:16;13.70;99.90
34644;DHT22;26931;43.498;-1.506;2022-12-16T04:23:01;13.70;99.90
34644;DHT22;26931;43.498;-1.506;2022-12-16T04:25:45;13.70;99.90
34644;DHT22;26931;43.498;-1.506;2022-12-16T04:28:10;13.60;99.90
34644;DHT22;26931;43.498;-1.506;2022-12-16T04:30:36;13.70;99.90
34644;DHT22;26931;43.498;-1.506;2022-12-16T04:35:46;13.70;99.90
34644;DHT22;26931;43.498;-1.506;2022-12-16T04:38:31;13.60;99.90
34644;DHT22;26931;43.498;-1.506;2022-12-16T04:41:15;13.60;99.90
34644;DHT22;26931;43.498;-1.506;2022-12-16T04:43:59;13.40;99.90
34644;DHT22;26931;43.498;-1.506;2022-12-16T04:46:43;13.50;99.90
34644;DHT22;26931;43.498;-1.506;2022-12-16T04:49:27;13.50;99.90
34644;DHT22;26931;43.498;-1.506;2022-12-16T04:52:12;13.50;99.90
34644;DHT22;26931;43.498;-1.506;2022-12-16T04:54:56;13.50;99.90
34644;DHT22;26931;43.498;-1.506;2022-12-16T04:57:42;13.30;99.90
34644;DHT22;26931;43.498;-1.506;2022-12-16T05:00:26;13.40;99.90
34644;DHT22;26931;43.498;-1.506;2022-12-16T05:03:10;13.40;99.90
34644;DHT22;26931;43.498;-1.506;2022-12-16T05:05:55;13.40;99.90
34644;DHT22;26931;43.498;-1.506;2022-12-16T05:08:39;13.40;99.90
34644;DHT22;26931;43.498;-1.506;2022-12-16T05:11:23;13.40;99.90
34644;DHT22;26931;43.498;-1.506;2022-12-16T05:14:07;13.40;99.90
34644;DHT22;26931;43.498;-1.506;2022-12-16T05:16:51;13.40;99.90
34644;DHT22;26931;43.498;-1.506;2022-12-16T05:19:36;13.40;99.90
34644;DHT22;26931;43.498;-1.506;2022-12-16T05:22:20;13.30;99.90
34644;DHT22;26931;43.498;-1.506;2022-12-16T05:25:05;13.30;99.90
34644;DHT22;26931;43.498;-1.506;2022-12-16T05:27:52;13.30;99.90
34644;DHT22;26931;43.498;-1.506;2022-12-16T05:30:37;13.30;99.90
34644;DHT22;26931;43.498;-1.506;2022-12-16T05:33:21;13.30;99.90
34644;DHT22;26931;43.498;-1.506;2022-12-16T05:36:05;13.30;99.90
34644;DHT22;26931;43.498;-1.506;2022-12-16T05:38:50;13.20;99.90
34644;DHT22;26931;43.498;-1.506;2022-12-16T05:41:34;13.20;99.90
34644;DHT22;26931;43.498;-1.506;2022-12-16T05:44:18;13.30;99.90
34644;DHT22;26931;43.498;-1.506;2022-12-16T05:47:02;13.20;99.90
34644;DHT22;26931;43.498;-1.506;2022-12-16T05:49:46;13.10;99.90
34644;DHT22;26931;43.498;-1.506;2022-12-16T05:52:30;13.10;99.90
34644;DHT22;26931;43.498;-1.506;2022-12-16T05:55:15;13.10;99.90
34644;DHT22;26931;43.498;-1.506;2022-12-16T05:57:59;13.10;99.90
34644;DHT22;26931;43.498;-1.506;2022-12-16T06:00:43;13.10;99.90
34644;DHT22;26931;43.498;-1.506;2022-12-16T06:03:27;13.00;99.90
34644;DHT22;26931;43.498;-1.506;2022-12-16T06:06:11;13.00;99.90
34644;DHT22;26931;43.498;-1.506;2022-12-16T06:08:56;13.00;99.90
34644;DHT22;26931;43.498;-1.506;2022-12-16T06:11:40;12.90;99.90
34644;DHT22;26931;43.498;-1.506;2022-12-16T06:14:24;12.90;99.90
34644;DHT22;26931;43.498;-1.506;2022-12-16T06:17:08;12.90;99.90
34644;DHT22;26931;43.498;-1.506;2022-12-16T06:19:53;12.90;99.90
34644;DHT22;26931;43.498;-1.506;2022-12-16T06:22:37;12.70;99.90
34644;DHT22;26931;43.498;-1.506;2022-12-16T06:25:21;12.80;99.90
34644;DHT22;26931;43.498;-1.506;2022-12-16T06:28:05;12.60;99.90
34644;DHT22;26931;43.498;-1.506;2022-12-16T06:30:50;12.80;99.90
34644;DHT22;26931;43.498;-1.506;2022-12-16T06:33:34;12.80;99.90
34644;DHT22;26931;43.498;-1.506;2022-12-16T06:36:18;12.70;99.90
34644;DHT22;26931;43.498;-1.506;2022-12-16T06:39:02;12.70;99.90
34644;DHT22;26931;43.498;-1.506;2022-12-16T06:41:46;12.70;99.90
34644;DHT22;26931;43.498;-1.506;2022-12-16T06:44:30;12.60;99.90
34644;DHT22;26931;43.498;-1.506;2022-12-16T06:47:15;12.70;99.90
34644;DHT22;26931;43.498;-1.506;2022-12-16T06:49:59;12.60;99.90
34644;DHT22;26931;43.498;-1.506;2022-12-16T06:52:43;12.60;99.90
34644;DHT22;26931;43.498;-1.506;2022-12-16T06:55:28;12.60;99.90
34644;DHT22;26931;43.498;-1.506;2022-12-16T06:58:11;12.60;99.90
34644;DHT22;26931;43.498;-1.506;2022-12-16T07:00:56;12.60;99.90
34644;DHT22;26931;43.498;-1.506;2022-12-16T07:03:40;12.50;99.90
34644;DHT22;26931;43.498;-1.506;2022-12-16T07:06:24;12.50;99.90
34644;DHT22;26931;43.498;-1.506;2022-12-16T07:09:08;12.60;99.90
34644;DHT22;26931;43.498;-1.506;2022-12-16T07:11:53;12.50;99.90
34644;DHT22;26931;43.498;-1.506;2022-12-16T07:14:37;12.50;99.90
34644;DHT22;26931;43.498;-1.506;2022-12-16T07:17:21;12.50;99.90
34644;DHT22;26931;43.498;-1.506;2022-12-16T07:20:05;12.40;99.90
34644;DHT22;26931;43.498;-1.506;2022-12-16T07:22:49;12.40;99.90
34644;DHT22;26931;43.498;-1.506;2022-12-16T07:25:34;12.40;99.90
34644;DHT22;26931;43.498;-1.506;2022-12-16T07:28:18;12.30;99.90
34644;DHT22;26931;43.498;-1.506;2022-12-16T07:31:02;12.40;99.90
34644;DHT22;26931;43.498;-1.506;2022-12-16T07:33:46;12.40;99.90
34644;DHT22;26931;43.498;-1.506;2022-12-16T07:36:30;12.40;99.90
34644;DHT22;26931;43.498;-1.506;2022-12-16T07:39:14;12.40;99.90
34644;DHT22;26931;43.498;-1.506;2022-12-16T07:41:58;12.30;99.90
34644;DHT22;26931;43.498;-1.506;2022-12-16T07:44:43;12.30;99.90
34644;DHT22;26931;43.498;-1.506;2022-12-16T07:47:27;12.30;99.90
34644;DHT22;26931;43.498;-1.506;2022-12-16T07:50:11;12.30;99.90
34644;DHT22;26931;43.498;-1.506;2022-12-16T07:52:56;12.30;99.90
34644;DHT22;26931;43.498;-1.506;2022-12-16T07:55:40;12.30;99.90
34644;DHT22;26931;43.498;-1.506;2022-12-16T07:58:24;12.30;99.90
34644;DHT22;26931;43.498;-1.506;2022-12-16T08:01:08;12.30;99.90
34644;DHT22;26931;43.498;-1.506;2022-12-16T08:03:52;12.30;99.90
34644;DHT22;26931;43.498;-1.506;2022-12-16T08:06:36;12.30;99.90
34644;DHT22;26931;43.498;-1.506;2022-12-16T08:09:21;12.30;99.90
34644;DHT22;26931;43.498;-1.506;2022-12-16T08:12:05;12.30;99.90
34644;DHT22;26931;43.498;-1.506;2022-12-16T08:14:49;12.20;99.90
34644;DHT22;26931;43.498;-1.506;2022-12-16T08:17:33;12.20;99.90
34644;DHT22;26931;43.498;-1.506;2022-12-16T08:20:17;12.30;99.90
34644;DHT22;26931;43.498;-1.506;2022-12-16T08:23:01;12.30;99.90
34644;DHT22;26931;43.498;-1.506;2022-12-16T08:25:46;12.30;99.90
34644;DHT22;26931;43.498;-1.506;2022-12-16T08:28:30;12.20;99.90
34644;DHT22;26931;43.498;-1.506;2022-12-16T08:31:14;12.30;99.90
34644;DHT22;26931;43.498;-1.506;2022-12-16T08:33:58;12.30;99.90
34644;DHT22;26931;43.498;-1.506;2022-12-16T08:36:42;12.20;99.90
34644;DHT22;26931;43.498;-1.506;2022-12-16T08:39:26;12.20;99.90
34644;DHT22;26931;43.498;-1.506;2022-12-16T08:42:10;12.30;99.90
34644;DHT22;26931;43.498;-1.506;2022-12-16T08:44:54;12.30;99.90
34644;DHT22;26931;43.498;-1.506;2022-12-16T08:47:39;12.30;99.90
34644;DHT22;26931;43.498;-1.506;2022-12-16T08:50:23;12.30;99.90
34644;DHT22;26931;43.498;-1.506;2022-12-16T08:53:07;12.20;99.90
34644;DHT22;26931;43.498;-1.506;2022-12-16T08:55:51;12.30;99.90
34644;DHT22;26931;43.498;-1.506;2022-12-16T08:58:35;12.10;99.90
34644;DHT22;26931;43.498;-1.506;2022-12-16T09:01:19;12.30;99.90
34644;DHT22;26931;43.498;-1.506;2022-12-16T09:04:04;12.30;99.90
34644;DHT22;26931;43.498;-1.506;2022-12-16T09:06:48;12.20;99.90
34644;DHT22;26931;43.498;-1.506;2022-12-16T09:09:32;12.30;99.90
34644;DHT22;26931;43.498;-1.506;2022-12-16T09:12:16;12.30;99.90
34644;DHT22;26931;43.498;-1.506;2022-12-16T09:15:01;12.20;99.90
34644;DHT22;26931;43.498;-1.506;2022-12-16T09:17:45;12.30;99.90
34644;DHT22;26931;43.498;-1.506;2022-12-16T09:20:35;12.20;99.90
34644;DHT22;26931;43.498;-1.506;2022-12-16T09:23:19;12.30;99.90
34644;DHT22;26931;43.498;-1.506;2022-12-16T09:26:03;12.20;99.90
34644;DHT22;26931;43.498;-1.506;2022-12-16T09:28:47;12.20;99.90
34644;DHT22;26931;43.498;-1.506;2022-12-16T09:31:31;12.20;99.90
34644;DHT22;26931;43.498;-1.506;2022-12-16T09:34:16;12.20;99.90
34644;DHT22;26931;43.498;-1.506;2022-12-16T09:37:00;12.10;99.90
34644;DHT22;26931;43.498;-1.506;2022-12-16T09:39:44;12.00;99.90
34644;DHT22;26931;43.498;-1.506;2022-12-16T09:45:38;12.20;99.90
34644;DHT22;26931;43.498;-1.506;2022-12-16T09:51:19;12.10;99.90
34644;DHT22;26931;43.498;-1.506;2022-12-16T09:54:03;12.00;99.90
34644;DHT22;26931;43.498;-1.506;2022-12-16T09:56:48;12.10;99.90
34644;DHT22;26931;43.498;-1.506;2022-12-16T09:59:33;12.00;99.90
34644;DHT22;26931;43.498;-1.506;2022-12-16T10:02:19;12.10;99.90
34644;DHT22;26931;43.498;-1.506;2022-12-16T10:05:14;12.10;99.90
34644;DHT22;26931;43.498;-1.506;2022-12-16T10:08:03;12.10;99.90
34644;DHT22;26931;43.498;-1.506;2022-12-16T10:10:58;12.10;99.90
34644;DHT22;26931;43.498;-1.506;2022-12-16T10:19:40;12.00;99.90
34644;DHT22;26931;43.498;-1.506;2022-12-16T10:22:28;12.00;99.90
34644;DHT22;26931;43.498;-1.506;2022-12-16T10:28:00;12.00;99.90
34644;DHT22;26931;43.498;-1.506;2022-12-16T10:30:48;12.00;99.90
34644;DHT22;26931;43.498;-1.506;2022-12-16T10:33:33;12.00;99.90
34644;DHT22;26931;43.498;-1.506;2022-12-16T10:36:19;12.00;99.90
34644;DHT22;26931;43.498;-1.506;2022-12-16T10:39:26;12.00;99.90
34644;DHT22;26931;43.498;-1.506;2022-12-16T10:42:14;12.00;99.90
34644;DHT22;26931;43.498;-1.506;2022-12-16T10:45:02;11.90;99.90
34644;DHT22;26931;43.498;-1.506;2022-12-16T10:47:46;12.00;99.90
34644;DHT22;26931;43.498;-1.506;2022-12-16T10:50:30;12.00;99.90
34644;DHT22;26931;43.498;-1.506;2022-12-16T10:53:15;12.00;99.90
34644;DHT22;26931;43.498;-1.506;2022-12-16T10:59:03;12.00;99.90
34644;DHT22;26931;43.498;-1.506;2022-12-16T11:01:55;12.00;99.90
34644;DHT22;26931;43.498;-1.506;2022-12-16T11:04:39;11.90;99.90
34644;DHT22;26931;43.498;-1.506;2022-12-16T11:10:41;12.00;99.90
34644;DHT22;26931;43.498;-1.506;2022-12-16T11:13:29;11.90;99.90
34644;DHT22;26931;43.498;-1.506;2022-12-16T11:16:15;11.90;99.90
34644;DHT22;26931;43.498;-1.506;2022-12-16T11:18:59;11.90;99.90
34644;DHT22;26931;43.498;-1.506;2022-12-16T11:21:44;11.90;99.90
34644;DHT22;26931;43.498;-1.506;2022-12-16T11:24:28;11.80;99.90
34644;DHT22;26931;43.498;-1.506;2022-12-16T11:30:03;11.80;99.90
34644;DHT22;26931;43.498;-1.506;2022-12-16T11:32:50;11.90;99.90
34644;DHT22;26931;43.498;-1.506;2022-12-16T11:35:37;11.90;99.90
34644;DHT22;26931;43.498;-1.506;2022-12-16T11:38:24;11.90;99.90
34644;DHT22;26931;43.498;-1.506;2022-12-16T11:41:14;11.90;99.90
34644;DHT22;26931;43.498;-1.506;2022-12-16T11:44:00;11.90;99.90
34644;DHT22;26931;43.498;-1.506;2022-12-16T11:46:45;11.90;99.90
34644;DHT22;26931;43.498;-1.506;2022-12-16T11:49:30;11.80;99.90
34644;DHT22;26931;43.498;-1.506;2022-12-16T11:52:16;11.80;99.90
34644;DHT22;26931;43.498;-1.506;2022-12-16T11:55:17;11.80;99.90
34644;DHT22;26931;43.498;-1.506;2022-12-16T11:58:17;11.80;99.90
34644;DHT22;26931;43.498;-1.506;2022-12-16T12:01:04;11.80;99.90
34644;DHT22;26931;43.498;-1.506;2022-12-16T12:03:52;11.80;99.90
34644;DHT22;26931;43.498;-1.506;2022-12-16T12:09:37;11.80;99.90
34644;DHT22;26931;43.498;-1.506;2022-12-16T12:12:36;11.70;99.90
34644;DHT22;26931;43.498;-1.506;2022-12-16T12:15:32;11.70;99.90
34644;DHT22;26931;43.498;-1.506;2022-12-16T12:21:35;11.70;99.90
34644;DHT22;26931;43.498;-1.506;2022-12-16T12:24:26;11.70;99.90
34644;DHT22;26931;43.498;-1.506;2022-12-16T12:27:16;11.70;99.90
34644;DHT22;26931;43.498;-1.506;2022-12-16T12:36:18;11.80;99.90
34644;DHT22;26931;43.498;-1.506;2022-12-16T12:47:29;11.80;99.90
34644;DHT22;26931;43.498;-1.506;2022-12-16T12:50:26;11.90;99.90
34644;DHT22;26931;43.498;-1.506;2022-12-16T12:53:21;11.80;99.90
34644;DHT22;26931;43.498;-1.506;2022-12-16T12:56:10;11.90;99.90
34644;DHT22;26931;43.498;-1.506;2022-12-16T12:58:59;11.90;99.90
34644;DHT22;26931;43.498;-1.506;2022-12-16T13:01:45;11.90;99.90
34644;DHT22;26931;43.498;-1.506;2022-12-16T13:04:29;11.90;99.90
34644;DHT22;26931;43.498;-1.506;2022-12-16T13:07:15;11.90;99.90
34644;DHT22;26931;43.498;-1.506;2022-12-16T13:16:01;11.90;99.90
34644;DHT22;26931;43.498;-1.506;2022-12-16T13:18:46;12.00;99.90
34644;DHT22;26931;43.498;-1.506;2022-12-16T13:27:11;12.00;99.90
34644;DHT22;26931;43.498;-1.506;2022-12-16T13:38:43;12.00;99.90
34644;DHT22;26931;43.498;-1.506;2022-12-16T13:53:17;12.00;99.90
34644;DHT22;26931;43.498;-1.506;2022-12-16T13:56:02;12.00;99.90
34644;DHT22;26931;43.498;-1.506;2022-12-16T13:58:49;11.90;99.90
34644;DHT22;26931;43.498;-1.506;2022-12-16T14:01:37;12.00;99.90
34644;DHT22;26931;43.498;-1.506;2022-12-16T14:04:25;12.00;99.90
34644;DHT22;26931;43.498;-1.506;2022-12-16T14:07:10;11.90;99.90
34644;DHT22;26931;43.498;-1.506;2022-12-16T14:09:54;11.80;99.90
34644;DHT22;26931;43.498;-1.506;2022-12-16T14:12:53;11.90;99.90
34644;DHT22;26931;43.498;-1.506;2022-12-16T14:15:41;12.00;99.90
34644;DHT22;26931;43.498;-1.506;2022-12-16T14:21:14;11.90;99.90
34644;DHT22;26931;43.498;-1.506;2022-12-16T14:24:06;11.90;99.90
34644;DHT22;26931;43.498;-1.506;2022-12-16T14:26:50;11.90;99.90
34644;DHT22;26931;43.498;-1.506;2022-12-16T14:29:35;11.90;99.90
34644;DHT22;26931;43.498;-1.506;2022-12-16T14:32:27;11.90;99.90
34644;DHT22;26931;43.498;-1.506;2022-12-16T14:35:19;11.90;99.90
34644;DHT22;26931;43.498;-1.506;2022-12-16T14:41:11;11.90;99.90
34644;DHT22;26931;43.498;-1.506;2022-12-16T14:43:56;11.70;99.90
34644;DHT22;26931;43.498;-1.506;2022-12-16T14:46:40;11.90;99.90
34644;DHT22;26931;43.498;-1.506;2022-12-16T14:49:25;11.90;99.90
34644;DHT22;26931;43.498;-1.506;2022-12-16T14:52:20;11.90;99.90
34644;DHT22;26931;43.498;-1.506;2022-12-16T14:55:11;11.80;99.90
34644;DHT22;26931;43.498;-1.506;2022-12-16T14:58:03;11.90;99.90
34644;DHT22;26931;43.498;-1.506;2022-12-16T15:00:48;12.00;99.90
34644;DHT22;26931;43.498;-1.506;2022-12-16T15:03:36;11.90;99.90
34644;DHT22;26931;43.498;-1.506;2022-12-16T15:06:25;11.90;99.90
34644;DHT22;26931;43.498;-1.506;2022-12-16T15:09:12;11.70;99.90
34644;DHT22;26931;43.498;-1.506;2022-12-16T15:11:59;11.80;99.90
34644;DHT22;26931;43.498;-1.506;2022-12-16T15:14:44;11.90;99.90
34644;DHT22;26931;43.498;-1.506;2022-12-16T15:17:29;11.90;99.90
34644;DHT22;26931;43.498;-1.506;2022-12-16T15:20:17;11.80;99.90
34644;DHT22;26931;43.498;-1.506;2022-12-16T15:23:02;11.90;99.90
34644;DHT22;26931;43.498;-1.506;2022-12-16T15:25:50;11.90;99.90
34644;DHT22;26931;43.498;-1.506;2022-12-16T15:28:38;11.70;99.90
34644;DHT22;26931;43.498;-1.506;2022-12-16T15:31:24;11.80;99.90
34644;DHT22;26931;43.498;-1.506;2022-12-16T15:34:28;11.80;99.90
34644;DHT22;26931;43.498;-1.506;2022-12-16T15:37:23;11.80;99.90
34644;DHT22;26931;43.498;-1.506;2022-12-16T15:40:22;11.80;99.90
34644;DHT22;26931;43.498;-1.506;2022-12-16T15:43:19;11.80;99.90
34644;DHT22;26931;43.498;-1.506;2022-12-16T15:46:03;11.90;99.90
34644;DHT22;26931;43.498;-1.506;2022-12-16T15:48:47;11.80;99.90
34644;DHT22;26931;43.498;-1.506;2022-12-16T15:51:41;11.80;99.90
34644;DHT22;26931;43.498;-1.506;2022-12-16T15:54:26;11.70;99.90
34644;DHT22;26931;43.498;-1.506;2022-12-16T16:03:03;11.80;99.90
34644;DHT22;26931;43.498;-1.506;2022-12-16T16:05:47;11.80;99.90
34644;DHT22;26931;43.498;-1.506;2022-12-16T16:08:31;11.90;99.90
34644;DHT22;26931;43.498;-1.506;2022-12-16T16:11:16;11.80;99.90
34644;DHT22;26931;43.498;-1.506;2022-12-16T16:14:00;11.90;99.90
34644;DHT22;26931;43.498;-1.506;2022-12-16T16:16:44;11.80;99.90
34644;DHT22;26931;43.498;-1.506;2022-12-16T16:19:29;11.80;99.90
34644;DHT22;26931;43.498;-1.506;2022-12-16T16:22:14;11.80;99.90
34644;DHT22;26931;43.498;-1.506;2022-12-16T16:24:58;11.90;99.90
34644;DHT22;26931;43.498;-1.506;2022-12-16T16:27:42;11.80;99.90
34644;DHT22;26931;43.498;-1.506;2022-12-16T16:30:26;11.70;99.90
34644;DHT22;26931;43.498;-1.506;2022-12-16T16:33:11;11.80;99.90
34644;DHT22;26931;43.498;-1.506;2022-12-16T16:35:55;11.80;99.90
34644;DHT22;26931;43.498;-1.506;2022-12-16T16:38:39;11.80;99.90
34644;DHT22;26931;43.498;-1.506;2022-12-16T16:41:23;11.80;99.90
34644;DHT22;26931;43.498;-1.506;2022-12-16T16:44:07;11.70;99.90
34644;DHT22;26931;43.498;-1.506;2022-12-16T16:46:51;11.70;99.90
34644;DHT22;26931;43.498;-1.506;2022-12-16T16:49:41;11.80;99.90
34644;DHT22;26931;43.498;-1.506;2022-12-16T16:52:26;11.80;99.90
34644;DHT22;26931;43.498;-1.506;2022-12-16T16:58:03;11.70;99.90
34644;DHT22;26931;43.498;-1.506;2022-12-16T17:00:47;11.80;99.90
34644;DHT22;26931;43.498;-1.506;2022-12-16T17:03:32;11.80;99.90
34644;DHT22;26931;43.498;-1.506;2022-12-16T17:06:16;11.80;99.90
34644;DHT22;26931;43.498;-1.506;2022-12-16T17:09:00;11.80;99.90
34644;DHT22;26931;43.498;-1.506;2022-12-16T17:11:44;11.80;99.90
34644;DHT22;26931;43.498;-1.506;2022-12-16T17:14:28;11.90;99.80
34644;DHT22;26931;43.498;-1.506;2022-12-16T17:17:13;11.70;99.70
34644;DHT22;26931;43.498;-1.506;2022-12-16T17:19:57;11.80;99.60
34644;DHT22;26931;43.498;-1.506;2022-12-16T17:22:41;11.80;99.60
34644;DHT22;26931;43.498;-1.506;2022-12-16T17:25:25;11.80;99.50
34644;DHT22;26931;43.498;-1.506;2022-12-16T17:28:09;11.70;99.50
34644;DHT22;26931;43.498;-1.506;2022-12-16T17:30:54;11.80;99.50
34644;DHT22;26931;43.498;-1.506;2022-12-16T17:33:38;11.80;99.40
34644;DHT22;26931;43.498;-1.506;2022-12-16T17:36:22;11.80;99.30
34644;DHT22;26931;43.498;-1.506;2022-12-16T17:39:08;11.60;99.20
34644;DHT22;26931;43.498;-1.506;2022-12-16T17:41:52;11.80;99.30
34644;DHT22;26931;43.498;-1.506;2022-12-16T17:44:36;11.70;99.10
34644;DHT22;26931;43.498;-1.506;2022-12-16T17:47:20;11.80;99.20
34644;DHT22;26931;43.498;-1.506;2022-12-16T17:50:05;11.80;99.20
34644;DHT22;26931;43.498;-1.506;2022-12-16T17:52:55;11.80;99.20
34644;DHT22;26931;43.498;-1.506;2022-12-16T17:55:39;11.80;99.10
34644;DHT22;26931;43.498;-1.506;2022-12-16T17:58:40;11.70;99.00
34644;DHT22;26931;43.498;-1.506;2022-12-16T18:01:24;11.80;99.00
34644;DHT22;26931;43.498;-1.506;2022-12-16T18:04:08;11.80;98.90
34644;DHT22;26931;43.498;-1.506;2022-12-16T18:06:52;11.80;98.90
34644;DHT22;26931;43.498;-1.506;2022-12-16T18:09:36;11.80;98.90
34644;DHT22;26931;43.498;-1.506;2022-12-16T18:12:20;11.80;98.90
34644;DHT22;26931;43.498;-1.506;2022-12-16T18:15:10;11.80;99.00
34644;DHT22;26931;43.498;-1.506;2022-12-16T18:17:54;11.80;99.00
34644;DHT22;26931;43.498;-1.506;2022-12-16T18:20:38;11.80;99.00
34644;DHT22;26931;43.498;-1.506;2022-12-16T18:23:22;11.80;99.00
34644;DHT22;26931;43.498;-1.506;2022-12-16T18:26:07;11.80;99.00
34644;DHT22;26931;43.498;-1.506;2022-12-16T18:28:51;11.80;99.00
34644;DHT22;26931;43.498;-1.506;2022-12-16T18:31:35;11.80;99.00
34644;DHT22;26931;43.498;-1.506;2022-12-16T18:34:19;11.80;99.00
34644;DHT22;26931;43.498;-1.506;2022-12-16T18:37:04;11.80;99.10
34644;DHT22;26931;43.498;-1.506;2022-12-16T18:40:08;11.60;99.00
34644;DHT22;26931;43.498;-1.506;2022-12-16T18:42:52;11.70;99.10